Time,TemperatureF,DewpointF,PressureIn,WindDirection,WindDirectionDegrees,WindSpeedMPH,WindSpeedGustMPH,Humidity,HourlyPrecipIn,Conditions,Clouds,dailyrainin,SoftwareType,DateUTC
2013-06-27 00:02:00,50.2,45.0,30.23,West,261,0.0,2.0,82,0.00,,,0.04,meteohub,2013-06-26 22:02:00,
2013-06-27 00:07:00,49.8,44.6,30.23,South,177,0.0,2.0,82,0.00,,,0.04,meteohub,2013-06-26 22:07:00,
2013-06-27 00:12:00,49.6,44.8,30.23,SW,233,0.0,2.0,83,0.00,,,0.04,meteohub,2013-06-26 22:12:00,
2013-06-27 00:17:00,49.6,44.8,30.23,South,175,1.0,6.0,83,0.00,,,0.04,meteohub,2013-06-26 22:17:00,
2013-06-27 00:22:00,49.5,44.6,30.23,West,263,1.0,6.0,83,0.00,,,0.04,meteohub,2013-06-26 22:22:00,
2013-06-27 00:27:00,49.5,44.6,30.23,South,172,0.0,2.0,83,0.00,,,0.04,meteohub,2013-06-26 22:27:00,
2013-06-27 00:32:00,49.3,44.4,30.23,SW,229,0.0,4.0,83,0.00,,,0.04,meteohub,2013-06-26 22:32:00,
2013-06-27 00:42:00,49.3,44.6,30.23,WSW,248,0.0,4.0,84,0.00,,,0.04,meteohub,2013-06-26 22:42:00,
2013-06-27 00:47:00,49.1,44.4,30.23,NE,34,0.0,5.0,84,0.00,,,0.04,meteohub,2013-06-26 22:47:00,
2013-06-27 00:52:00,49.1,44.4,30.23,West,277,1.0,5.0,84,0.00,,,0.04,meteohub,2013-06-26 22:52:00,
2013-06-27 01:02:00,48.9,44.2,30.23,East,81,0.0,4.0,84,0.00,,,0.04,meteohub,2013-06-26 23:02:00,
2013-06-27 01:17:00,49.1,44.4,30.23,SSW,205,1.0,2.0,84,0.00,,,0.04,meteohub,2013-06-26 23:17:00,
2013-06-27 01:22:00,49.1,44.8,30.23,NNE,17,0.0,2.0,85,0.00,,,0.04,meteohub,2013-06-26 23:22:00,
2013-06-27 01:27:00,48.9,44.6,30.23,WSW,246,0.0,2.0,85,0.00,,,0.04,meteohub,2013-06-26 23:27:00,
2013-06-27 01:32:00,48.9,44.6,30.23,South,171,0.0,2.0,85,0.00,,,0.04,meteohub,2013-06-26 23:32:00,
2013-06-27 01:37:00,48.9,44.6,30.23,SSW,196,1.0,2.0,85,0.00,,,0.04,meteohub,2013-06-26 23:37:00,
2013-06-27 01:42:00,48.9,44.6,30.23,NNW,334,0.0,2.0,85,0.00,,,0.04,meteohub,2013-06-26 23:42:00,
2013-06-27 01:47:00,48.9,45.0,30.23,NNW,333,0.0,2.0,86,0.00,,,0.04,meteohub,2013-06-26 23:47:00,
2013-06-27 01:52:00,48.9,44.6,30.23,NE,42,0.0,1.0,85,0.00,,,0.04,meteohub,2013-06-26 23:52:00,
2013-06-27 01:57:00,48.9,45.0,30.23,SSW,207,0.0,1.0,86,0.00,,,0.04,meteohub,2013-06-26 23:57:00,
2013-06-27 02:02:00,48.9,45.0,30.23,SSW,212,0.0,2.0,86,0.00,,,0.04,meteohub,2013-06-27 00:02:00,
2013-06-27 02:07:00,48.9,44.6,30.23,NNW,340,0.0,3.0,85,0.00,,,0.00,meteohub,2013-06-27 00:07:00,
2013-06-27 02:12:00,48.9,44.6,30.22,WNW,298,1.0,3.0,85,0.00,,,0.00,meteohub,2013-06-27 00:12:00,
2013-06-27 02:17:00,48.9,44.6,30.22,NW,314,0.0,3.0,85,0.00,,,0.00,meteohub,2013-06-27 00:17:00,
2013-06-27 02:22:00,49.1,44.8,30.22,NNW,339,1.0,2.0,85,0.00,,,0.00,meteohub,2013-06-27 00:22:00,
2013-06-27 02:27:00,49.1,44.8,30.22,NNW,344,0.0,2.0,85,0.00,,,0.00,meteohub,2013-06-27 00:27:00,
2013-06-27 02:32:00,49.1,44.8,30.22,SSW,202,0.0,2.0,85,0.00,,,0.00,meteohub,2013-06-27 00:32:00,
2013-06-27 02:37:00,48.9,44.6,30.22,ESE,105,0.0,2.0,85,0.00,,,0.00,meteohub,2013-06-27 00:37:00,
2013-06-27 02:42:00,49.1,45.1,30.22,SSW,194,0.0,2.0,86,0.00,,,0.00,meteohub,2013-06-27 00:42:00,
2013-06-27 02:47:00,48.9,44.6,30.22,West,262,0.0,2.0,85,0.00,,,0.00,meteohub,2013-06-27 00:47:00,
2013-06-27 02:52:00,48.9,45.0,30.22,South,173,0.0,2.0,86,0.00,,,0.00,meteohub,2013-06-27 00:52:00,
2013-06-27 02:57:00,48.9,45.0,30.22,SW,231,0.0,4.0,86,0.00,,,0.00,meteohub,2013-06-27 00:57:00,
2013-06-27 03:02:00,48.9,45.0,30.22,NW,319,0.0,4.0,86,0.00,,,0.00,meteohub,2013-06-27 01:02:00,
2013-06-27 03:07:00,48.9,45.0,30.22,NNW,329,0.0,4.0,86,0.00,,,0.00,meteohub,2013-06-27 01:07:00,
2013-06-27 03:12:00,48.9,45.0,30.22,South,177,0.0,2.0,86,0.00,,,0.00,meteohub,2013-06-27 01:12:00,
2013-06-27 03:17:00,48.9,45.0,30.22,WSW,247,0.0,2.0,86,0.00,,,0.00,meteohub,2013-06-27 01:17:00,
2013-06-27 03:22:00,48.7,44.8,30.22,SSE,168,0.0,2.0,86,0.00,,,0.00,meteohub,2013-06-27 01:22:00,
2013-06-27 03:27:00,48.7,45.0,30.22,NNW,335,0.0,2.0,87,0.00,,,0.00,meteohub,2013-06-27 01:27:00,
2013-06-27 03:32:00,48.7,45.0,30.22,NNW,341,0.0,2.0,87,0.00,,,0.00,meteohub,2013-06-27 01:32:00,
2013-06-27 03:37:00,48.7,45.0,30.22,NNW,329,0.0,2.0,87,0.00,,,0.00,meteohub,2013-06-27 01:37:00,
2013-06-27 03:42:00,48.7,45.0,30.22,South,191,0.0,2.0,87,0.00,,,0.00,meteohub,2013-06-27 01:42:00,
2013-06-27 03:52:00,48.7,45.0,30.22,SSW,199,0.0,1.0,87,0.00,,,0.00,meteohub,2013-06-27 01:52:00,
2013-06-27 03:57:00,48.7,45.0,30.22,SSW,213,0.0,1.0,87,0.00,,,0.00,meteohub,2013-06-27 01:57:00,
2013-06-27 04:07:00,48.7,45.0,30.21,SW,217,0.0,2.0,87,0.00,,,0.00,meteohub,2013-06-27 02:07:00,
2013-06-27 04:12:00,48.6,44.8,30.21,SSW,212,0.0,2.0,87,0.00,,,0.00,meteohub,2013-06-27 02:12:00,
2013-06-27 04:17:00,48.6,44.8,30.21,SW,229,0.0,2.0,87,0.00,,,0.00,meteohub,2013-06-27 02:17:00,
2013-06-27 04:22:00,48.6,45.1,30.21,SSW,208,1.0,2.0,88,0.00,,,0.00,meteohub,2013-06-27 02:22:00,
2013-06-27 04:27:00,48.6,45.1,30.21,NNW,336,0.0,1.0,88,0.00,,,0.00,meteohub,2013-06-27 02:27:00,
2013-06-27 04:32:00,48.6,45.1,30.21,SW,220,0.0,2.0,88,0.00,,,0.00,meteohub,2013-06-27 02:32:00,
2013-06-27 04:37:00,48.6,45.1,30.21,SSW,206,0.0,2.0,88,0.00,,,0.00,meteohub,2013-06-27 02:37:00,
2013-06-27 04:42:00,48.4,45.0,30.21,SSW,212,0.0,2.0,88,0.00,,,0.00,meteohub,2013-06-27 02:42:00,
2013-06-27 04:47:00,48.4,45.3,30.21,NNW,331,0.0,2.0,89,0.00,,,0.00,meteohub,2013-06-27 02:47:00,
2013-06-27 04:52:00,48.4,45.3,30.21,SW,214,1.0,2.0,89,0.00,,,0.00,meteohub,2013-06-27 02:52:00,
2013-06-27 04:57:00,48.4,45.3,30.21,SSW,204,0.0,2.0,89,0.00,,,0.00,meteohub,2013-06-27 02:57:00,
2013-06-27 05:02:00,48.4,45.3,30.21,WNW,284,0.0,2.0,89,0.00,,,0.00,meteohub,2013-06-27 03:02:00,
2013-06-27 05:07:00,48.4,45.3,30.20,WSW,248,0.0,2.0,89,0.00,,,0.00,meteohub,2013-06-27 03:07:00,
2013-06-27 05:17:00,48.4,45.3,30.21,SW,229,1.0,2.0,89,0.00,,,0.00,meteohub,2013-06-27 03:17:00,
2013-06-27 05:22:00,48.4,45.3,30.20,West,273,0.0,2.0,89,0.00,,,0.00,meteohub,2013-06-27 03:22:00,
2013-06-27 05:27:00,48.4,45.3,30.21,SW,219,0.0,2.0,89,0.00,,,0.00,meteohub,2013-06-27 03:27:00,
2013-06-27 05:32:00,48.2,45.1,30.21,West,268,0.0,2.0,89,0.00,,,0.00,meteohub,2013-06-27 03:32:00,
2013-06-27 05:37:00,48.0,45.0,30.20,SSW,208,0.0,1.0,89,0.00,,,0.00,meteohub,2013-06-27 03:37:00,
2013-06-27 05:42:00,48.0,45.0,30.20,SSW,205,1.0,1.0,89,0.00,,,0.00,meteohub,2013-06-27 03:42:00,
2013-06-27 05:47:00,47.8,44.8,30.21,WSW,254,0.0,2.0,89,0.00,,,0.00,meteohub,2013-06-27 03:47:00,
2013-06-27 05:57:00,47.7,45.0,30.20,SSW,207,0.0,2.0,90,0.00,,,0.00,meteohub,2013-06-27 03:57:00,
2013-06-27 06:02:00,47.7,45.0,30.20,SSW,207,1.0,2.0,90,0.00,,,0.00,meteohub,2013-06-27 04:02:00,
2013-06-27 06:07:00,47.8,45.0,30.20,SW,217,0.0,1.0,90,0.00,,,0.00,meteohub,2013-06-27 04:07:00,
2013-06-27 06:12:00,48.0,45.1,30.20,SW,223,0.0,2.0,90,0.00,,,0.00,meteohub,2013-06-27 04:12:00,
2013-06-27 06:17:00,48.0,45.1,30.20,South,172,1.0,2.0,90,0.00,,,0.00,meteohub,2013-06-27 04:17:00,
2013-06-27 06:22:00,48.2,45.1,30.20,SSW,198,0.0,2.0,89,0.00,,,0.00,meteohub,2013-06-27 04:22:00,
2013-06-27 06:27:00,48.4,45.3,30.20,WSW,253,0.0,2.0,89,0.00,,,0.00,meteohub,2013-06-27 04:27:00,
2013-06-27 06:32:00,48.6,45.5,30.20,WNW,296,2.0,2.0,89,0.00,,,0.00,meteohub,2013-06-27 04:32:00,
2013-06-27 06:37:00,48.6,45.5,30.20,SSE,151,0.0,2.0,89,0.00,,,0.00,meteohub,2013-06-27 04:37:00,
2013-06-27 06:42:00,48.9,45.5,30.20,West,259,0.0,2.0,88,0.00,,,0.00,meteohub,2013-06-27 04:42:00,
2013-06-27 06:47:00,49.3,45.9,30.20,SW,227,1.0,5.0,88,0.00,,,0.00,meteohub,2013-06-27 04:47:00,
2013-06-27 06:52:00,49.3,45.9,30.20,WNW,292,0.0,5.0,88,0.00,,,0.00,meteohub,2013-06-27 04:52:00,
2013-06-27 06:57:00,49.5,45.7,30.20,West,265,0.0,5.0,87,0.00,,,0.00,meteohub,2013-06-27 04:57:00,
2013-06-27 07:02:00,49.6,45.9,30.20,WNW,294,0.0,3.0,87,0.00,,,0.00,meteohub,2013-06-27 05:02:00,
2013-06-27 07:07:00,49.6,45.9,30.20,SW,226,0.0,3.0,87,0.00,,,0.00,meteohub,2013-06-27 05:07:00,
2013-06-27 07:12:00,49.8,46.0,30.20,SW,226,1.0,3.0,87,0.00,,,0.00,meteohub,2013-06-27 05:12:00,
2013-06-27 07:17:00,50.2,46.4,30.20,SW,226,0.0,4.0,87,0.00,,,0.00,meteohub,2013-06-27 05:17:00,
2013-06-27 07:22:00,50.4,46.6,30.21,SW,226,0.0,4.0,87,0.00,,,0.00,meteohub,2013-06-27 05:22:00,
2013-06-27 07:27:00,50.7,46.8,30.21,SW,226,1.0,4.0,86,0.00,,,0.00,meteohub,2013-06-27 05:27:00,
2013-06-27 07:32:00,51.3,46.9,30.21,SW,227,1.0,2.0,85,0.00,,,0.00,meteohub,2013-06-27 05:32:00,
2013-06-27 07:37:00,51.6,47.3,30.21,SW,227,0.0,2.0,85,0.00,,,0.00,meteohub,2013-06-27 05:37:00,
2013-06-27 07:42:00,52.0,46.9,30.21,SW,227,0.0,2.0,83,0.00,,,0.00,meteohub,2013-06-27 05:42:00,
2013-06-27 07:47:00,52.3,46.9,30.21,SW,227,1.0,3.0,82,0.00,,,0.00,meteohub,2013-06-27 05:47:00,
2013-06-27 07:52:00,52.9,46.9,30.21,SW,227,0.0,3.0,80,0.00,,,0.00,meteohub,2013-06-27 05:52:00,
2013-06-27 07:57:00,53.1,47.1,30.21,SW,227,2.0,8.0,80,0.00,,,0.00,meteohub,2013-06-27 05:57:00,
2013-06-27 08:02:00,53.1,47.1,30.21,SW,226,1.0,8.0,80,0.00,,,0.00,meteohub,2013-06-27 06:02:00,
2013-06-27 08:07:00,53.6,47.7,30.21,SW,226,0.0,8.0,80,0.00,,,0.00,meteohub,2013-06-27 06:07:00,
2013-06-27 08:12:00,54.0,47.7,30.20,SW,227,0.0,7.0,79,0.00,,,0.00,meteohub,2013-06-27 06:12:00,
2013-06-27 08:17:00,54.1,47.5,30.20,SW,226,0.0,5.0,78,0.00,,,0.00,meteohub,2013-06-27 06:17:00,
2013-06-27 08:22:00,54.9,48.2,30.20,SW,226,0.0,5.0,78,0.00,,,0.00,meteohub,2013-06-27 06:22:00,
2013-06-27 08:32:00,55.8,48.0,30.20,SW,226,1.0,4.0,75,0.00,,,0.00,meteohub,2013-06-27 06:32:00,
2013-06-27 08:37:00,55.9,47.8,30.20,SW,226,1.0,4.0,74,0.00,,,0.00,meteohub,2013-06-27 06:37:00,
2013-06-27 08:42:00,56.1,48.0,30.20,SW,226,2.0,7.0,74,0.00,,,0.00,meteohub,2013-06-27 06:42:00,
2013-06-27 08:47:00,56.5,48.0,30.20,SW,226,1.0,7.0,73,0.00,,,0.00,meteohub,2013-06-27 06:47:00,
2013-06-27 08:52:00,56.7,48.0,30.21,SW,226,0.0,7.0,73,0.00,,,0.00,meteohub,2013-06-27 06:52:00,
2013-06-27 08:57:00,56.8,48.6,30.21,SW,226,0.0,4.0,74,0.00,,,0.00,meteohub,2013-06-27 06:57:00,
2013-06-27 09:02:00,57.0,48.0,30.21,SW,226,0.0,4.0,72,0.00,,,0.00,meteohub,2013-06-27 07:02:00,
2013-06-27 09:07:00,57.7,48.7,30.21,SW,226,0.0,2.0,72,0.00,,,0.00,meteohub,2013-06-27 07:07:00,
2013-06-27 09:12:00,57.9,48.2,30.20,SW,226,0.0,2.0,70,0.00,,,0.00,meteohub,2013-06-27 07:12:00,
2013-06-27 09:17:00,57.9,47.5,30.20,SW,226,2.0,6.0,68,0.00,,,0.00,meteohub,2013-06-27 07:17:00,
2013-06-27 09:22:00,58.3,46.6,30.20,SW,226,4.0,6.0,65,0.00,,,0.00,meteohub,2013-06-27 07:22:00,
2013-06-27 09:27:00,58.5,47.5,30.20,SW,226,0.0,5.0,67,0.00,,,0.00,meteohub,2013-06-27 07:27:00,
2013-06-27 09:32:00,58.8,47.5,30.20,SW,227,1.0,5.0,66,0.00,,,0.00,meteohub,2013-06-27 07:32:00,
2013-06-27 09:42:00,58.6,46.9,30.20,SW,227,0.0,6.0,65,0.00,,,0.00,meteohub,2013-06-27 07:42:00,
2013-06-27 09:47:00,58.3,47.3,30.20,SW,227,2.0,6.0,67,0.00,,,0.00,meteohub,2013-06-27 07:47:00,
2013-06-27 09:52:00,57.9,46.6,30.20,SW,227,0.0,6.0,66,0.00,,,0.00,meteohub,2013-06-27 07:52:00,
2013-06-27 10:02:00,57.6,46.2,30.20,SW,227,0.0,5.0,66,0.00,,,0.00,meteohub,2013-06-27 08:02:00,
2013-06-27 10:07:00,57.7,46.9,30.20,SW,227,0.0,5.0,67,0.00,,,0.00,meteohub,2013-06-27 08:07:00,
2013-06-27 10:12:00,57.7,46.4,30.20,SW,227,0.0,5.0,66,0.00,,,0.00,meteohub,2013-06-27 08:12:00,
2013-06-27 10:17:00,57.9,46.9,30.20,SW,227,0.0,2.0,67,0.00,,,0.00,meteohub,2013-06-27 08:17:00,
2013-06-27 10:22:00,58.1,47.7,30.20,SW,227,0.0,2.0,68,0.00,,,0.00,meteohub,2013-06-27 08:22:00,
2013-06-27 10:32:00,58.5,46.4,30.20,SW,227,0.0,4.0,64,0.00,,,0.00,meteohub,2013-06-27 08:32:00,
2013-06-27 10:42:00,57.9,46.6,30.19,SW,227,1.0,4.0,66,0.00,,,0.00,meteohub,2013-06-27 08:42:00,
2013-06-27 10:52:00,57.6,46.8,30.20,SW,227,0.0,5.0,67,0.00,,,0.00,meteohub,2013-06-27 08:52:00,
2013-06-27 11:02:00,57.9,46.2,30.19,SW,227,0.0,5.0,65,0.00,,,0.00,meteohub,2013-06-27 09:02:00,
2013-06-27 11:07:00,57.7,46.4,30.19,SW,227,2.0,6.0,66,0.00,,,0.00,meteohub,2013-06-27 09:07:00,
2013-06-27 11:12:00,57.9,46.2,30.19,SW,227,0.0,6.0,65,0.00,,,0.00,meteohub,2013-06-27 09:12:00,
2013-06-27 11:22:00,58.6,46.9,30.19,SW,227,0.0,6.0,65,0.00,,,0.00,meteohub,2013-06-27 09:22:00,
2013-06-27 11:27:00,59.4,48.4,30.19,SW,227,0.0,4.0,67,0.00,,,0.00,meteohub,2013-06-27 09:27:00,
2013-06-27 11:37:00,60.3,45.9,30.19,SW,227,0.0,4.0,59,0.00,,,0.00,meteohub,2013-06-27 09:37:00,
2013-06-27 11:47:00,60.1,45.7,30.19,SW,227,1.0,5.0,59,0.00,,,0.00,meteohub,2013-06-27 09:47:00,
2013-06-27 11:52:00,59.5,45.1,30.19,SW,227,3.0,4.0,59,0.00,,,0.00,meteohub,2013-06-27 09:52:00,
2013-06-27 11:57:00,59.5,46.0,30.19,SW,227,0.0,4.0,61,0.00,,,0.00,meteohub,2013-06-27 09:57:00,
2013-06-27 12:02:00,59.4,45.5,30.19,SW,227,0.0,3.0,60,0.00,,,0.00,meteohub,2013-06-27 10:02:00,
2013-06-27 12:12:00,59.4,46.4,30.19,SW,227,0.0,2.0,62,0.00,,,0.00,meteohub,2013-06-27 10:12:00,
2013-06-27 12:22:00,59.4,45.9,30.19,SW,227,1.0,1.0,61,0.00,,,0.00,meteohub,2013-06-27 10:22:00,
2013-06-27 12:27:00,59.5,46.0,30.19,SW,227,0.0,1.0,61,0.00,,,0.00,meteohub,2013-06-27 10:27:00,
2013-06-27 12:32:00,59.5,45.1,30.19,SW,227,0.0,4.0,59,0.00,,,0.00,meteohub,2013-06-27 10:32:00,
2013-06-27 12:42:00,58.8,47.1,30.19,SW,227,1.0,5.0,65,0.00,,,0.00,meteohub,2013-06-27 10:42:00,
2013-06-27 12:47:00,59.4,45.9,30.19,SW,227,0.0,5.0,61,0.00,,,0.00,meteohub,2013-06-27 10:47:00,
2013-06-27 12:52:00,59.4,45.5,30.19,SW,227,0.0,5.0,60,0.00,,,0.00,meteohub,2013-06-27 10:52:00,
2013-06-27 12:57:00,59.5,46.0,30.19,SW,227,0.0,4.0,61,0.00,,,0.00,meteohub,2013-06-27 10:57:00,
2013-06-27 13:07:00,59.7,45.9,30.19,SW,227,2.0,5.0,60,0.00,,,0.00,meteohub,2013-06-27 11:07:00,
2013-06-27 13:17:00,59.9,46.4,30.19,SW,227,1.0,6.0,61,0.00,,,0.00,meteohub,2013-06-27 11:17:00,
2013-06-27 13:27:00,60.3,47.1,30.18,SW,227,0.0,4.0,62,0.00,,,0.00,meteohub,2013-06-27 11:27:00,
2013-06-27 13:37:00,59.7,46.8,30.18,SW,227,1.0,4.0,62,0.00,,,0.00,meteohub,2013-06-27 11:37:00,
2013-06-27 13:42:00,59.7,46.2,30.18,SW,227,0.0,4.0,61,0.00,,,0.00,meteohub,2013-06-27 11:42:00,
2013-06-27 13:52:00,59.5,46.6,30.18,SW,227,4.0,5.0,62,0.00,,,0.00,meteohub,2013-06-27 11:52:00,
2013-06-27 13:57:00,59.7,46.2,30.18,SW,227,0.0,5.0,61,0.00,,,0.00,meteohub,2013-06-27 11:57:00,
2013-06-27 14:07:00,60.4,45.1,30.18,SW,227,1.0,4.0,57,0.00,,,0.00,meteohub,2013-06-27 12:07:00,
2013-06-27 14:12:00,60.4,45.7,30.18,SW,227,1.0,4.0,58,0.00,,,0.00,meteohub,2013-06-27 12:12:00,
2013-06-27 14:17:00,60.3,45.0,30.18,SW,227,0.0,4.0,57,0.00,,,0.00,meteohub,2013-06-27 12:17:00,
2013-06-27 14:27:00,61.2,46.8,30.17,SW,227,4.0,4.0,59,0.00,,,0.00,meteohub,2013-06-27 12:27:00,
2013-06-27 14:32:00,61.0,46.0,30.17,SW,227,0.0,6.0,58,0.00,,,0.00,meteohub,2013-06-27 12:32:00,
2013-06-27 14:37:00,61.0,46.6,30.17,SW,227,0.0,6.0,59,0.00,,,0.00,meteohub,2013-06-27 12:37:00,
2013-06-27 14:42:00,61.0,46.6,30.17,SW,227,0.0,6.0,59,0.00,,,0.00,meteohub,2013-06-27 12:42:00,
2013-06-27 14:47:00,61.2,46.8,30.17,SW,227,0.0,4.0,59,0.00,,,0.00,meteohub,2013-06-27 12:47:00,
2013-06-27 14:57:00,60.4,46.9,30.17,North,0,1.0,7.0,61,0.00,,,0.00,meteohub,2013-06-27 12:57:00,
2013-06-27 15:02:00,59.9,46.4,30.17,North,0,1.0,7.0,61,0.00,,,0.00,meteohub,2013-06-27 13:02:00,
2013-06-27 15:12:00,59.7,47.1,30.17,SE,130,0.0,6.0,63,0.00,,,0.00,meteohub,2013-06-27 13:12:00,
2013-06-27 15:17:00,59.9,47.3,30.17,SSW,196,0.0,5.0,63,0.00,,,0.00,meteohub,2013-06-27 13:17:00,
2013-06-27 15:22:00,60.1,46.6,30.17,ENE,61,1.0,1.0,61,0.00,,,0.00,meteohub,2013-06-27 13:22:00,
2013-06-27 15:27:00,60.1,47.5,30.17,NE,52,0.0,1.0,63,0.00,,,0.00,meteohub,2013-06-27 13:27:00,
2013-06-27 15:37:00,60.1,46.6,30.16,NNE,30,0.0,4.0,61,0.00,,,0.00,meteohub,2013-06-27 13:37:00,
2013-06-27 15:42:00,60.1,46.6,30.16,NNE,27,1.0,4.0,61,0.00,,,0.00,meteohub,2013-06-27 13:42:00,
2013-06-27 15:47:00,60.3,47.7,30.16,North,5,0.0,3.0,63,0.00,,,0.00,meteohub,2013-06-27 13:47:00,
2013-06-27 15:57:00,60.3,47.1,30.16,NNE,12,0.0,1.0,62,0.00,,,0.00,meteohub,2013-06-27 13:57:00,
2013-06-27 16:02:00,60.1,46.2,30.16,WSW,240,0.0,2.0,60,0.00,,,0.00,meteohub,2013-06-27 14:02:00,
2013-06-27 16:07:00,59.9,46.0,30.16,SW,227,1.0,2.0,60,0.00,,,0.00,meteohub,2013-06-27 14:07:00,
2013-06-27 16:17:00,59.5,46.9,30.16,SW,227,0.0,2.0,63,0.00,,,0.00,meteohub,2013-06-27 14:17:00,
2013-06-27 16:27:00,59.5,48.2,30.16,NNW,345,0.0,1.0,66,0.00,,,0.00,meteohub,2013-06-27 14:27:00,
2013-06-27 16:37:00,59.4,48.0,30.16,North,355,0.0,1.0,66,0.00,,,0.00,meteohub,2013-06-27 14:37:00,
2013-06-27 16:42:00,59.2,48.2,30.16,NNE,26,0.0,1.0,67,0.00,,,0.00,meteohub,2013-06-27 14:42:00,
2013-06-27 16:47:00,59.0,48.4,30.16,SSE,162,1.0,1.0,68,0.00,,,0.00,meteohub,2013-06-27 14:47:00,
2013-06-27 16:52:00,58.8,47.5,30.16,North,11,0.0,2.0,66,0.00,,,0.00,meteohub,2013-06-27 14:52:00,
2013-06-27 16:57:00,58.8,47.5,30.15,SW,219,0.0,3.0,66,0.00,,,0.00,meteohub,2013-06-27 14:57:00,
2013-06-27 17:07:00,58.8,47.8,30.15,SW,227,0.0,3.0,67,0.00,,,0.00,meteohub,2013-06-27 15:07:00,
2013-06-27 17:12:00,58.8,47.1,30.15,SW,227,0.0,1.0,65,0.00,,,0.00,meteohub,2013-06-27 15:12:00,
2013-06-27 17:17:00,58.8,47.1,30.15,SW,227,0.0,2.0,65,0.00,,,0.00,meteohub,2013-06-27 15:17:00,
2013-06-27 17:22:00,59.2,46.9,30.15,North,355,0.0,2.0,64,0.00,,,0.00,meteohub,2013-06-27 15:22:00,
2013-06-27 17:27:00,59.2,46.9,30.15,ENE,59,0.0,4.0,64,0.00,,,0.00,meteohub,2013-06-27 15:27:00,
2013-06-27 17:32:00,59.2,46.6,30.15,NE,53,0.0,4.0,63,0.00,,,0.00,meteohub,2013-06-27 15:32:00,
2013-06-27 17:37:00,59.2,44.8,30.15,WSW,258,0.0,4.0,59,0.00,,,0.00,meteohub,2013-06-27 15:37:00,
2013-06-27 17:47:00,59.0,45.5,30.15,NE,55,0.0,2.0,61,0.00,,,0.00,meteohub,2013-06-27 15:47:00,
2013-06-27 17:57:00,58.8,45.0,30.15,NNE,15,1.0,2.0,60,0.00,,,0.00,meteohub,2013-06-27 15:57:00,
2013-06-27 18:02:00,58.8,45.0,30.15,ENE,60,1.0,2.0,60,0.00,,,0.00,meteohub,2013-06-27 16:02:00,
2013-06-27 18:07:00,58.6,45.7,30.15,North,5,0.0,2.0,62,0.00,,,0.00,meteohub,2013-06-27 16:07:00,
2013-06-27 18:12:00,58.6,44.8,30.15,NE,38,0.0,2.0,60,0.00,,,0.00,meteohub,2013-06-27 16:12:00,
2013-06-27 18:17:00,58.5,46.4,30.15,North,0,0.0,2.0,64,0.00,,,0.00,meteohub,2013-06-27 16:17:00,
2013-06-27 18:22:00,58.5,45.9,30.15,NNE,19,0.0,2.0,63,0.00,,,0.00,meteohub,2013-06-27 16:22:00,
2013-06-27 18:32:00,58.3,46.2,30.15,North,11,0.0,1.0,64,0.00,,,0.00,meteohub,2013-06-27 16:32:00,
2013-06-27 18:42:00,57.9,46.2,30.15,North,5,1.0,2.0,65,0.00,,,0.00,meteohub,2013-06-27 16:42:00,
2013-06-27 18:52:00,57.7,46.0,30.15,NE,37,1.0,3.0,65,0.00,,,0.00,meteohub,2013-06-27 16:52:00,
2013-06-27 19:02:00,57.7,46.0,30.15,NE,36,0.0,2.0,65,0.00,,,0.00,meteohub,2013-06-27 17:02:00,
2013-06-27 19:12:00,57.6,47.1,30.14,NNE,19,1.0,2.0,68,0.00,,,0.00,meteohub,2013-06-27 17:12:00,
2013-06-27 19:17:00,57.6,47.1,30.14,NE,38,0.0,3.0,68,0.00,,,0.00,meteohub,2013-06-27 17:17:00,
2013-06-27 19:22:00,57.4,47.7,30.14,North,355,0.0,3.0,70,0.00,,,0.00,meteohub,2013-06-27 17:22:00,
2013-06-27 19:27:00,57.4,47.7,30.14,North,355,1.0,3.0,70,0.00,,,0.00,meteohub,2013-06-27 17:27:00,
2013-06-27 19:37:00,57.0,46.6,30.14,NNE,20,0.0,2.0,68,0.00,,,0.00,meteohub,2013-06-27 17:37:00,
2013-06-27 19:42:00,56.8,46.8,30.14,North,11,0.0,2.0,69,0.00,,,0.00,meteohub,2013-06-27 17:42:00,
2013-06-27 19:47:00,56.8,47.1,30.14,North,11,0.0,3.0,70,0.00,,,0.00,meteohub,2013-06-27 17:47:00,
2013-06-27 19:52:00,56.8,47.1,30.14,ENE,63,0.0,3.0,70,0.00,,,0.00,meteohub,2013-06-27 17:52:00,
2013-06-27 19:57:00,56.8,47.5,30.14,NNE,20,0.0,1.0,71,0.00,,,0.00,meteohub,2013-06-27 17:57:00,
2013-06-27 20:07:00,56.7,46.9,30.14,North,351,0.0,1.0,70,0.00,,,0.00,meteohub,2013-06-27 18:07:00,
2013-06-27 20:12:00,56.7,47.3,30.14,North,355,0.0,1.0,71,0.00,,,0.00,meteohub,2013-06-27 18:12:00,
2013-06-27 20:17:00,56.7,46.6,30.14,North,355,0.0,1.0,69,0.00,,,0.00,meteohub,2013-06-27 18:17:00,
2013-06-27 20:27:00,56.5,46.0,30.14,North,351,0.0,1.0,68,0.00,,,0.00,meteohub,2013-06-27 18:27:00,
2013-06-27 20:37:00,56.3,45.9,30.14,North,355,0.0,1.0,68,0.00,,,0.00,meteohub,2013-06-27 18:37:00,
2013-06-27 20:42:00,56.1,46.0,30.14,North,355,0.0,1.0,69,0.00,,,0.00,meteohub,2013-06-27 18:42:00,
2013-06-27 20:47:00,55.9,45.5,30.14,North,355,0.0,1.0,68,0.00,,,0.00,meteohub,2013-06-27 18:47:00,
2013-06-27 20:52:00,55.9,46.2,30.14,North,355,0.0,1.0,70,0.00,,,0.00,meteohub,2013-06-27 18:52:00,
2013-06-27 21:02:00,55.6,46.8,30.14,NNW,348,0.0,1.0,72,0.00,,,0.00,meteohub,2013-06-27 19:02:00,
2013-06-27 21:12:00,55.2,46.8,30.14,NNE,15,0.0,2.0,73,0.00,,,0.00,meteohub,2013-06-27 19:12:00,
2013-06-27 21:22:00,55.0,46.6,30.14,NNE,15,0.0,2.0,73,0.00,,,0.00,meteohub,2013-06-27 19:22:00,
2013-06-27 21:32:00,54.9,46.4,30.14,NNE,15,0.0,1.0,73,0.00,,,0.00,meteohub,2013-06-27 19:32:00,
2013-06-27 21:42:00,54.7,45.9,30.14,NNE,15,0.0,0.0,72,0.00,,,0.00,meteohub,2013-06-27 19:42:00,
2013-06-27 21:52:00,54.3,45.1,30.14,NNE,15,0.0,0.0,71,0.00,,,0.00,meteohub,2013-06-27 19:52:00,
2013-06-27 22:02:00,54.1,45.0,30.14,NNE,15,0.0,1.0,71,0.00,,,0.00,meteohub,2013-06-27 20:02:00,
2013-06-27 22:12:00,54.0,45.1,30.14,NNE,13,0.0,1.0,72,0.00,,,0.00,meteohub,2013-06-27 20:12:00,
2013-06-27 22:17:00,53.8,45.7,30.14,NNE,13,0.0,1.0,74,0.00,,,0.00,meteohub,2013-06-27 20:17:00,
2013-06-27 22:22:00,53.8,45.7,30.13,NNE,13,0.0,1.0,74,0.00,,,0.00,meteohub,2013-06-27 20:22:00,
2013-06-27 22:27:00,53.4,45.7,30.14,NNE,13,0.0,0.0,75,0.00,,,0.00,meteohub,2013-06-27 20:27:00,
2013-06-27 22:35:00,53.4,46.0,30.13,NE,34,0.0,1.0,76,0.00,,,0.00,meteohub,2013-06-27 20:35:00,
2013-06-27 22:40:00,53.2,45.9,30.13,NE,34,0.0,1.0,76,0.00,,,0.00,meteohub,2013-06-27 20:40:00,
2013-06-27 22:47:00,53.1,46.0,30.14,NE,36,0.0,1.0,77,0.00,,,0.00,meteohub,2013-06-27 20:47:00,
2013-06-27 22:52:00,52.9,46.2,30.14,NE,36,0.0,1.0,78,0.00,,,0.00,meteohub,2013-06-27 20:52:00,
2013-06-27 23:02:00,52.5,45.9,30.13,NE,36,0.0,1.0,78,0.00,,,0.00,meteohub,2013-06-27 21:02:00,
2013-06-27 23:12:00,52.3,46.4,30.13,NE,36,0.0,1.0,80,0.00,,,0.00,meteohub,2013-06-27 21:12:00,
2013-06-27 23:22:00,52.2,46.2,30.13,NE,36,0.0,1.0,80,0.00,,,0.00,meteohub,2013-06-27 21:22:00,
2013-06-27 23:27:00,52.2,46.6,30.13,NE,36,0.0,1.0,81,0.00,,,0.00,meteohub,2013-06-27 21:27:00,
2013-06-27 23:37:00,52.0,46.9,30.14,NE,36,0.0,1.0,83,0.00,,,0.00,meteohub,2013-06-27 21:37:00,
2013-06-27 23:47:00,52.0,46.9,30.14,NE,36,0.0,1.0,83,0.00,,,0.00,meteohub,2013-06-27 21:47:00,
2013-06-27 23:52:00,52.0,47.3,30.14,NE,36,0.0,0.0,84,0.00,,,0.00,meteohub,2013-06-27 21:52:00,
2013-06-27 23:57:00,52.0,47.3,30.14,NE,36,0.0,1.0,84,0.00,,,0.00,meteohub,2013-06-27 21:57:00,